createdAt,value
2018-12-02T00:04:22.905Z,8.40
2018-12-02T00:09:26.068Z,8.40
2018-12-02T00:14:29.241Z,8.40
2018-12-02T00:19:32.415Z,8.50
2018-12-02T00:24:35.587Z,8.60
2018-12-02T00:29:38.754Z,8.70
2018-12-02T00:34:41.928Z,8.70
2018-12-02T00:39:45.113Z,8.70
2018-12-02T00:44:48.284Z,8.70
2018-12-02T00:49:51.494Z,8.70
2018-12-02T00:54:54.687Z,8.70
2018-12-02T00:59:57.820Z,8.80
2018-12-02T01:05:00.984Z,8.80
2018-12-02T01:10:04.192Z,8.80
2018-12-02T01:15:15.647Z,8.70
2018-12-02T01:20:19.874Z,8.70
2018-12-02T01:25:23.055Z,8.70
2018-12-02T01:30:26.211Z,8.80
2018-12-02T01:35:29.384Z,8.90
2018-12-02T01:40:32.561Z,8.90
2018-12-02T01:45:35.762Z,9.00
2018-12-02T01:50:38.955Z,9.00
2018-12-02T01:55:42.157Z,9.10
2018-12-02T02:00:45.358Z,9.10
2018-12-02T02:05:48.522Z,9.10
2018-12-02T02:10:51.709Z,9.10
2018-12-02T02:15:54.908Z,9.10
2018-12-02T02:20:58.098Z,9.00
2018-12-02T02:26:01.397Z,8.90
2018-12-02T02:31:05.033Z,8.90
2018-12-02T02:36:08.230Z,9.00
2018-12-02T02:41:11.457Z,9.00
2018-12-02T02:46:14.665Z,9.00
2018-12-02T02:51:17.860Z,8.90
2018-12-02T02:56:21.046Z,9.00
2018-12-02T03:01:24.230Z,8.90
2018-12-02T03:06:27.417Z,8.90
2018-12-02T03:11:30.600Z,8.80
2018-12-02T03:16:33.795Z,8.80
2018-12-02T03:21:36.998Z,8.80
2018-12-02T03:26:40.305Z,8.80
2018-12-02T03:31:43.499Z,8.80
2018-12-02T03:36:46.689Z,8.80
2018-12-02T03:41:49.933Z,8.90
2018-12-02T03:46:53.119Z,8.90
2018-12-02T03:51:56.294Z,8.90
2018-12-02T03:56:59.538Z,8.90
2018-12-02T04:02:02.690Z,9.00
2018-12-02T04:07:06.207Z,9.00
2018-12-02T04:12:09.365Z,9.00
2018-12-02T04:17:12.546Z,9.00
2018-12-02T04:22:15.718Z,9.10
2018-12-02T04:27:18.904Z,9.10
2018-12-02T04:32:22.056Z,9.10
2018-12-02T04:37:25.218Z,9.10
2018-12-02T04:42:28.369Z,9.20
2018-12-02T04:47:31.562Z,9.10
2018-12-02T04:52:34.750Z,9.10
2018-12-02T04:57:37.934Z,9.20
2018-12-02T05:02:41.238Z,9.20
2018-12-02T05:07:44.378Z,9.20
2018-12-02T05:12:47.861Z,9.20
2018-12-02T05:17:50.997Z,9.20
2018-12-02T05:22:54.158Z,9.20
2018-12-02T05:27:57.348Z,9.20
2018-12-02T05:33:00.498Z,9.20
2018-12-02T05:38:03.674Z,9.30
2018-12-02T05:43:06.818Z,9.20
2018-12-02T05:48:09.985Z,9.20
2018-12-02T05:53:13.184Z,9.20
2018-12-02T05:58:16.330Z,9.30
2018-12-02T06:03:19.582Z,9.30
2018-12-02T06:08:22.770Z,9.30
2018-12-02T06:13:26.037Z,9.30
2018-12-02T06:18:29.198Z,9.30
2018-12-02T06:23:32.365Z,9.40
2018-12-02T06:28:35.525Z,9.40
2018-12-02T06:33:38.694Z,9.40
2018-12-02T06:38:41.856Z,9.40
2018-12-02T06:43:45.013Z,9.40
2018-12-02T06:48:48.189Z,9.50
2018-12-02T06:53:51.378Z,9.50
2018-12-02T06:59:17.966Z,9.50
2018-12-02T07:04:23.074Z,9.50
2018-12-02T07:09:26.250Z,9.50
2018-12-02T07:14:29.407Z,9.50
2018-12-02T07:19:39.457Z,9.50
2018-12-02T07:24:42.698Z,9.50
2018-12-02T07:29:45.958Z,9.50
2018-12-02T07:34:49.224Z,9.50
2018-12-02T07:40:02.016Z,9.50
2018-12-02T07:45:05.242Z,9.60
2018-12-02T07:50:09.390Z,9.60
2018-12-02T07:55:12.610Z,9.60
2018-12-02T08:00:16.524Z,9.60
2018-12-02T08:05:19.760Z,9.60
2018-12-02T08:10:22.945Z,9.60
2018-12-02T08:15:26.146Z,9.70
2018-12-02T08:20:29.358Z,9.80
2018-12-02T08:25:32.554Z,9.80
2018-12-02T08:30:35.762Z,9.90
2018-12-02T08:35:38.982Z,9.90
2018-12-02T08:40:42.220Z,9.90
2018-12-02T08:45:45.402Z,9.90
2018-12-02T08:50:48.614Z,9.90
2018-12-02T08:55:52.107Z,10.00
2018-12-02T09:00:55.414Z,10.00
2018-12-02T09:05:58.673Z,10.10
2018-12-02T09:11:01.938Z,10.10
2018-12-02T09:16:05.259Z,10.10
2018-12-02T09:21:08.625Z,10.20
2018-12-02T09:26:11.814Z,10.30
2018-12-02T09:31:15.024Z,10.30
2018-12-02T09:36:18.258Z,10.30
2018-12-02T09:41:21.470Z,10.40
2018-12-02T09:46:24.662Z,10.50
2018-12-02T09:51:27.834Z,10.60
2018-12-02T09:56:31.000Z,10.60
2018-12-02T10:01:34.169Z,10.70
2018-12-02T10:06:37.343Z,10.80
2018-12-02T10:11:40.506Z,10.80
2018-12-02T10:17:47.629Z,11.00
2018-12-02T10:22:50.890Z,11.10
2018-12-02T10:27:54.058Z,11.20
2018-12-02T10:32:57.793Z,11.30
2018-12-02T10:38:00.966Z,11.40
2018-12-02T10:43:04.102Z,11.50
2018-12-02T10:48:10.619Z,11.50
2018-12-02T10:53:17.468Z,11.60
2018-12-02T10:58:23.474Z,11.80
2018-12-02T11:03:26.663Z,11.90
2018-12-02T11:08:30.069Z,12.10
2018-12-02T11:13:33.241Z,12.10
2018-12-02T11:18:36.474Z,12.10
2018-12-02T11:23:39.662Z,12.10
2018-12-02T11:28:43.066Z,12.20
2018-12-02T11:33:46.250Z,12.20
2018-12-02T11:38:49.462Z,12.30
2018-12-02T11:43:52.674Z,12.40
2018-12-02T11:48:55.894Z,12.40
2018-12-02T11:53:59.074Z,12.50
2018-12-02T11:59:02.321Z,12.50
2018-12-02T12:04:05.860Z,12.60
2018-12-02T12:09:09.055Z,12.60
2018-12-02T12:14:12.411Z,12.70
2018-12-02T12:19:15.606Z,12.70
2018-12-02T12:24:18.786Z,12.80
2018-12-02T12:29:21.969Z,12.80
2018-12-02T12:34:25.198Z,12.90
2018-12-02T12:39:28.399Z,13.00
2018-12-02T12:44:31.645Z,12.90
2018-12-02T12:49:34.813Z,13.00
2018-12-02T12:54:38.090Z,13.00
2018-12-02T12:59:41.250Z,13.00
2018-12-02T13:04:44.402Z,13.00
2018-12-02T13:09:47.593Z,13.10
2018-12-02T13:14:50.785Z,13.10
2018-12-02T13:19:53.956Z,13.10
2018-12-02T13:24:57.158Z,13.20
2018-12-02T13:30:00.365Z,13.30
2018-12-02T13:35:03.601Z,13.50
2018-12-02T13:40:11.485Z,13.40
2018-12-02T13:45:16.921Z,13.40
2018-12-02T13:50:20.626Z,13.30
2018-12-02T13:55:28.953Z,13.20
2018-12-02T14:00:32.185Z,13.10
2018-12-02T14:05:36.682Z,13.10
2018-12-02T14:10:39.868Z,13.00
2018-12-02T14:15:59.207Z,12.90
2018-12-02T14:21:02.366Z,12.80
2018-12-02T14:26:09.237Z,12.80
2018-12-02T14:31:12.601Z,12.80
2018-12-02T14:36:15.897Z,12.70
2018-12-02T14:41:19.127Z,12.70
2018-12-02T14:46:22.282Z,12.70
2018-12-02T14:51:25.491Z,12.70
2018-12-02T14:56:28.770Z,12.60
2018-12-02T15:01:31.978Z,12.70
2018-12-02T15:06:35.172Z,12.70
2018-12-02T15:11:38.336Z,12.70
2018-12-02T15:16:41.605Z,12.70
2018-12-02T15:21:44.756Z,12.60
2018-12-02T15:26:47.910Z,12.60
2018-12-02T15:31:51.087Z,12.40
2018-12-02T15:36:54.307Z,12.40
2018-12-02T15:41:57.458Z,12.40
2018-12-02T15:47:00.651Z,12.40
2018-12-02T15:52:03.842Z,12.40
2018-12-02T15:57:07.046Z,12.40
2018-12-02T16:02:10.263Z,12.40
2018-12-02T16:07:13.486Z,12.40
2018-12-02T16:12:16.766Z,12.40
2018-12-02T16:17:20.166Z,12.40
2018-12-02T16:22:23.674Z,12.30
2018-12-02T16:27:27.019Z,12.10
2018-12-02T16:32:30.466Z,12.20
2018-12-02T16:37:34.050Z,12.20
2018-12-02T16:42:37.521Z,12.20
2018-12-02T16:47:41.273Z,12.20
2018-12-02T16:52:44.950Z,12.20
2018-12-02T16:57:51.164Z,12.20
2018-12-02T17:02:54.510Z,12.20
2018-12-02T17:07:57.666Z,12.20
2018-12-02T17:13:00.853Z,12.20
2018-12-02T17:18:04.242Z,12.30
2018-12-02T17:23:07.473Z,12.40
2018-12-02T17:28:10.733Z,12.40
2018-12-02T17:33:13.946Z,12.40
2018-12-02T17:38:17.443Z,12.40
2018-12-02T17:43:20.626Z,12.40
2018-12-02T17:48:24.799Z,12.30
2018-12-02T17:53:28.118Z,12.40
2018-12-02T17:58:31.375Z,12.40
2018-12-02T18:03:35.032Z,12.20
2018-12-02T18:08:38.199Z,12.00
2018-12-02T18:13:41.766Z,12.10
2018-12-02T18:18:45.005Z,12.00
2018-12-02T18:23:48.270Z,12.00
2018-12-02T18:28:51.632Z,12.00
2018-12-02T18:33:54.805Z,12.00
2018-12-02T18:38:58.050Z,11.90
2018-12-02T18:44:01.266Z,12.00
2018-12-02T18:49:05.051Z,12.20
2018-12-02T18:54:09.490Z,12.30
2018-12-02T18:59:12.842Z,12.30
2018-12-02T19:04:16.091Z,12.30
2018-12-02T19:09:20.158Z,12.40
2018-12-02T19:14:23.509Z,12.40
2018-12-02T19:19:26.713Z,12.40
2018-12-02T19:24:30.011Z,12.40
2018-12-02T19:29:33.344Z,12.40
2018-12-02T19:34:36.457Z,12.50
2018-12-02T19:39:39.752Z,12.50
2018-12-02T19:44:42.963Z,12.30
2018-12-02T19:49:46.182Z,12.20
2018-12-02T19:54:49.394Z,12.30
2018-12-02T19:59:52.642Z,12.20
2018-12-02T20:04:55.901Z,12.30
2018-12-02T20:09:59.113Z,12.40
2018-12-02T20:15:02.450Z,12.40
2018-12-02T20:21:13.727Z,12.50
2018-12-02T20:26:16.943Z,12.50
2018-12-02T20:31:22.359Z,12.50
2018-12-02T20:36:25.606Z,12.50
2018-12-02T20:41:28.786Z,12.70
2018-12-02T20:46:31.994Z,12.70
2018-12-02T20:51:35.202Z,12.70
2018-12-02T20:56:38.406Z,12.80
2018-12-02T21:01:41.581Z,12.80
2018-12-02T21:06:44.890Z,12.80
2018-12-02T21:11:48.094Z,12.80
2018-12-02T21:16:51.274Z,12.80
2018-12-02T21:21:54.446Z,12.80
2018-12-02T21:26:57.754Z,12.80
2018-12-02T21:32:00.954Z,12.80
2018-12-02T21:37:04.149Z,12.80
2018-12-02T21:42:07.389Z,12.80
2018-12-02T21:47:10.581Z,12.80
2018-12-02T21:52:13.774Z,12.70
2018-12-02T21:57:16.978Z,12.70
2018-12-02T22:02:20.229Z,12.60
2018-12-02T22:07:23.458Z,12.70
2018-12-02T22:12:26.649Z,12.70
2018-12-02T22:17:29.822Z,12.70
2018-12-02T22:22:33.034Z,12.80
2018-12-02T22:27:36.230Z,12.80
2018-12-02T22:32:39.462Z,12.80
2018-12-02T22:37:43.206Z,12.80
2018-12-02T22:42:46.423Z,12.70
2018-12-02T22:47:49.689Z,12.70
2018-12-02T22:52:53.939Z,12.70
2018-12-02T22:57:57.225Z,12.70
2018-12-02T23:03:04.247Z,12.60
2018-12-02T23:08:07.550Z,12.60
2018-12-02T23:13:11.272Z,12.50
2018-12-02T23:18:14.445Z,12.50
2018-12-02T23:23:17.631Z,12.50
2018-12-02T23:28:20.786Z,12.40
2018-12-02T23:33:23.981Z,12.40
2018-12-02T23:38:27.218Z,12.40
2018-12-02T23:43:30.390Z,12.40
2018-12-02T23:48:33.562Z,12.50
2018-12-02T23:53:36.857Z,12.50
2018-12-02T23:58:40.023Z,12.50
